POA weather

Salgado Filho Airport
Porto Alegre, Rio Grande do Sul, Brazil

Public forecast

Using degrees Celsius for public forecast. Weather courtesy of forecast.io.

METAR (pilot weather report)

Retrieved 2019/09/19 01:00 UTC (25 seconds ago):

SBPA 190100Z VRB02KT 6000 NSC 13/12 Q1011

TAF (pilot weather forecast)

Forecast is more than 12 hours old.

Retrieved 2019/09/18 00:24 UTC (1 day ago):

TAF SBPA 182130Z 1900/1924 10005KT CAVOK TN11/1908Z TX21/1918Z BECMG 1908/1910 8000 BKN010 BECMG 1912/1914 22007KT 9999 NSW SCT030 RMK PDW